Thunder radar more information blitzortung!


Radar de pluja more information rain snow radar


Visita la nostra xarxa de llocs de meteo:

Template documentation
and downloads

And another site



Wind From: 11-12-2017 11:00 Until: 14:59 warning for: Wind Level: Yellow info button

Pagina Historial Weather Underground text

Diari Resum May 30, 2017 Unitats:  Tant    Imperial   Mètric
« Previous Dia
SegĂźent Dia »
Diari Setmana Mensual Anual Personalitzada
  Maxima: Minima: Media:
Temperatura: 72.9 °F /  22.7 °C 59.5 °F /  15.3 °C 67.3 °F /  19.6 °C
Punt de rosada: 56.8 °F /  13.8 °C 45.7 °F /  7.6 °C 50.4 °F /  10.2 °C
Humitat: 78 % 43 % 55 %
Wind Speed: 9.2 mph /  14.8 km/h - 3.3 mph /  5.3 km/h
RĂ fegues de vent: 10 mph /  16.1 km/h - -
Vent:- - East
Pression baro: 30.1 in /  1018.8 hPa 29.9 in /  1013.8 hPa -
Precipitacions: 0.04 in /  1.0 mm    
Historical Graphs
 
 
Dades de taula per May 30, 2017
Temps Temperatura Punt de rosada Pression baro Vent Wind Speed RĂ fegues de vent Humitat Rainfall Rate (Hourly)
00:00 67.8 °F /  19.9 °C 45.7 °F /  7.6 °C 30 in /  1014.8 hPa NE 2.3 mph /  3.7 km/h   45 % 0 in /  0.0 mm
00:05 61.3 °F /  16.3 °C 46.4 °F /  8.0 °C 29.9 in /  1013.8 hPa WSW 1 mph /  1.6 km/h 2 mph /  3.2 km/h 58 % 0 in /  0.0 mm
00:15 61.7 °F /  16.5 °C 46.8 °F /  8.2 °C 29.9 in /  1013.8 hPa Calm   2 mph /  3.2 km/h 58 % 0 in /  0.0 mm
00:25 61.7 °F /  16.5 °C 46.8 °F /  8.2 °C 29.9 in /  1013.8 hPa Calm     58 % 0 in /  0.0 mm
00:35 61.3 °F /  16.3 °C 46.4 °F /  8.0 °C 29.9 in /  1013.8 hPa Calm   1 mph /  1.6 km/h 58 % 0 in /  0.0 mm
00:45 61.7 °F /  16.5 °C 47.1 °F /  8.4 °C 30 in /  1014.8 hPa WNW 1 mph /  1.6 km/h 1 mph /  1.6 km/h 59 % 0 in /  0.0 mm
00:55 61.7 °F /  16.5 °C 47.1 °F /  8.4 °C 30 in /  1014.8 hPa Calm     59 % 0 in /  0.0 mm
01:05 61.7 °F /  16.5 °C 47.1 °F /  8.4 °C 30 in /  1014.8 hPa NNE 1 mph /  1.6 km/h 2 mph /  3.2 km/h 59 % 0 in /  0.0 mm
01:15 61.5 °F /  16.4 °C 47.1 °F /  8.4 °C 30 in /  1014.8 hPa NNE 2 mph /  3.2 km/h 3 mph /  4.8 km/h 59 % 0 in /  0.0 mm
01:25 61.3 °F /  16.3 °C 46.9 °F /  8.3 °C 30 in /  1014.8 hPa NE 1 mph /  1.6 km/h 3 mph /  4.8 km/h 59 % 0 in /  0.0 mm
01:35 61.5 °F /  16.4 °C 46.6 °F /  8.1 °C 30 in /  1014.8 hPa NE 2 mph /  3.2 km/h 2 mph /  3.2 km/h 58 % 0 in /  0.0 mm
01:45 61.5 °F /  16.4 °C 46.6 °F /  8.1 °C 30 in /  1014.8 hPa NNE 1 mph /  1.6 km/h 2 mph /  3.2 km/h 58 % 0 in /  0.0 mm
01:55 61.2 °F /  16.2 °C 46.2 °F /  7.9 °C 30 in /  1014.8 hPa NE 2 mph /  3.2 km/h 3 mph /  4.8 km/h 58 % 0 in /  0.0 mm
02:05 61 °F /  16.1 °C 46 °F /  7.8 °C 30 in /  1014.8 hPa NE 2 mph /  3.2 km/h 2 mph /  3.2 km/h 58 % 0 in /  0.0 mm
02:15 61.2 °F /  16.2 °C 47.1 °F /  8.4 °C 30 in /  1015.8 hPa NNW 3 mph /  4.8 km/h 3 mph /  4.8 km/h 60 % 0 in /  0.0 mm
02:25 61.5 °F /  16.4 °C 47.5 °F /  8.6 °C 30 in /  1014.8 hPa NNE 1 mph /  1.6 km/h 3 mph /  4.8 km/h 60 % 0 in /  0.0 mm
02:35 61.2 °F /  16.2 °C 47.7 °F /  8.7 °C 30 in /  1014.8 hPa NNE 2 mph /  3.2 km/h 3 mph /  4.8 km/h 61 % 0 in /  0.0 mm
02:45 61 °F /  16.1 °C 47.8 °F /  8.8 °C 30 in /  1015.8 hPa Calm   3 mph /  4.8 km/h 62 % 0 in /  0.0 mm
02:55 61.3 °F /  16.3 °C 48.2 °F /  9.0 °C 30 in /  1015.8 hPa SSE 2 mph /  3.2 km/h 3 mph /  4.8 km/h 62 % 0 in /  0.0 mm
03:05 61.3 °F /  16.3 °C 48.2 °F /  9.0 °C 30 in /  1015.8 hPa Calm   2 mph /  3.2 km/h 62 % 0 in /  0.0 mm
03:15 61.3 °F /  16.3 °C 48.6 °F /  9.2 °C 30 in /  1015.8 hPa NNE 1 mph /  1.6 km/h 2 mph /  3.2 km/h 63 % 0 in /  0.0 mm
03:25 60.6 °F /  15.9 °C 49.3 °F /  9.6 °C 30 in /  1015.8 hPa NNE 3 mph /  4.8 km/h 4 mph /  6.4 km/h 66 % 0 in /  0.0 mm
03:35 60.1 °F /  15.6 °C 49.8 °F /  9.9 °C 30 in /  1015.8 hPa NNE 3 mph /  4.8 km/h 4 mph /  6.4 km/h 69 % 0 in /  0.0 mm
03:45 59.9 °F /  15.5 °C 50.2 °F /  10.1 °C 30 in /  1015.8 hPa NE 5 mph /  8.0 km/h 6 mph /  9.7 km/h 70 % 0 in /  0.0 mm
03:55 59.9 °F /  15.5 °C 52.3 °F /  11.3 °C 30 in /  1015.8 hPa NE 7 mph /  11.3 km/h 10 mph /  16.1 km/h 76 % 0 in /  0.0 mm
04:05 59.7 °F /  15.4 °C 51.8 °F /  11.0 °C 30 in /  1015.8 hPa NNE 1 mph /  1.6 km/h 4 mph /  6.4 km/h 75 % 0 in /  0.0 mm
04:15 59.5 °F /  15.3 °C 52.7 °F /  11.5 °C 30 in /  1015.8 hPa NW 1 mph /  1.6 km/h 4 mph /  6.4 km/h 78 % 0 in /  0.0 mm
04:25 59.9 °F /  15.5 °C 53.1 °F /  11.7 °C 30 in /  1015.8 hPa West 3 mph /  4.8 km/h 4 mph /  6.4 km/h 78 % 0.04 in /  1.0 mm
04:35 60.1 °F /  15.6 °C 52.9 °F /  11.6 °C 30 in /  1015.8 hPa NNE 1 mph /  1.6 km/h 3 mph /  4.8 km/h 77 % 0.04 in /  1.0 mm
04:45 60.8 °F /  16.0 °C 53.4 °F /  11.9 °C 30 in /  1015.8 hPa NNE 2 mph /  3.2 km/h 3 mph /  4.8 km/h 77 % 0 in /  0.0 mm
04:55 61.2 °F /  16.2 °C 54 °F /  12.2 °C 30 in /  1015.8 hPa NE 2 mph /  3.2 km/h 5 mph /  8.0 km/h 77 % 0 in /  0.0 mm
05:05 61.3 °F /  16.3 °C 54.3 °F /  12.4 °C 30 in /  1015.8 hPa NE 1 mph /  1.6 km/h 3 mph /  4.8 km/h 78 % 0 in /  0.0 mm
05:15 61.3 °F /  16.3 °C 54.1 °F /  12.3 °C 30 in /  1015.8 hPa North 1 mph /  1.6 km/h 6 mph /  9.7 km/h 77 % 0 in /  0.0 mm
05:25 61.3 °F /  16.3 °C 53.8 °F /  12.1 °C 30 in /  1015.8 hPa NNE 1 mph /  1.6 km/h 2 mph /  3.2 km/h 76 % 0 in /  0.0 mm
05:35 61.7 °F /  16.5 °C 54.1 °F /  12.3 °C 30 in /  1015.8 hPa NE 2 mph /  3.2 km/h 3 mph /  4.8 km/h 76 % 0 in /  0.0 mm
05:45 62.6 °F /  17.0 °C 54.1 °F /  12.3 °C 30 in /  1015.8 hPa NE 1 mph /  1.6 km/h 4 mph /  6.4 km/h 74 % 0 in /  0.0 mm
05:50 62.6 °F /  17.0 °C 54.1 °F /  12.3 °C 30 in /  1015.8 hPa NE 3 mph /  4.8 km/h 5 mph /  8.0 km/h 74 % 0 in /  0.0 mm
10:51 62.6 °F /  17.0 °C 53.8 °F /  12.1 °C 30 in /  1016.8 hPa NE 3.5 mph /  5.6 km/h 3.8 mph /  6.1 km/h 73 % 0.04 in /  1.0 mm
10:56 62.8 °F /  17.1 °C 54 °F /  12.2 °C 30 in /  1016.8 hPa East 3.8 mph /  6.1 km/h 3.8 mph /  6.1 km/h 73 % 0.04 in /  1.0 mm
11:01 63 °F /  17.2 °C 54.1 °F /  12.3 °C 30 in /  1016.8 hPa ENE 2.3 mph /  3.7 km/h 2.3 mph /  3.7 km/h 73 % 0.04 in /  1.0 mm
11:06 63.9 °F /  17.7 °C 55 °F /  12.8 °C 30 in /  1015.8 hPa ENE 2.6 mph /  4.2 km/h   73 % 0 in /  0.0 mm
11:11 64.2 °F /  17.9 °C 55.4 °F /  13.0 °C 30 in /  1015.8 hPa ENE 3.5 mph /  5.6 km/h 3.5 mph /  5.6 km/h 73 % 0 in /  0.0 mm
11:12 64.4 °F /  18.0 °C 55.6 °F /  13.1 °C 30 in /  1015.8 hPa NNE 2.6 mph /  4.2 km/h 2.9 mph /  4.7 km/h 73 % 0 in /  0.0 mm
11:17 64.8 °F /  18.2 °C 55.6 °F /  13.1 °C 30 in /  1015.8 hPa NNE 4.6 mph /  7.4 km/h 4.6 mph /  7.4 km/h 72 % 0 in /  0.0 mm
11:22 65.7 °F /  18.7 °C 56.5 °F /  13.6 °C 30 in /  1015.8 hPa ENE 3.5 mph /  5.6 km/h 3.5 mph /  5.6 km/h 72 % 0 in /  0.0 mm
11:27 65.8 °F /  18.8 °C 56.1 °F /  13.4 °C 30 in /  1015.8 hPa WNW 5.8 mph /  9.3 km/h 5.8 mph /  9.3 km/h 71 % 0 in /  0.0 mm
11:32 66.6 °F /  19.2 °C 56.5 °F /  13.6 °C 30 in /  1015.8 hPa NE 3.5 mph /  5.6 km/h 3.5 mph /  5.6 km/h 70 % 0 in /  0.0 mm
11:37 66.7 °F /  19.3 °C 56.1 °F /  13.4 °C 30 in /  1015.8 hPa ENE 2.3 mph /  3.7 km/h 2.6 mph /  4.2 km/h 69 % 0 in /  0.0 mm
11:42 67.3 °F /  19.6 °C 56.8 °F /  13.8 °C 30 in /  1015.8 hPa NNW 3.5 mph /  5.6 km/h 3.5 mph /  5.6 km/h 69 % 0 in /  0.0 mm
11:47 67.3 °F /  19.6 °C 56.5 °F /  13.6 °C 30 in /  1015.8 hPa North 3.5 mph /  5.6 km/h 3.5 mph /  5.6 km/h 68 % 0 in /  0.0 mm
11:52 67.3 °F /  19.6 °C 56.5 °F /  13.6 °C 30 in /  1015.8 hPa ENE 5.8 mph /  9.3 km/h 5.8 mph /  9.3 km/h 68 % 0 in /  0.0 mm
11:57 67.5 °F /  19.7 °C 56.5 °F /  13.6 °C 30 in /  1015.8 hPa ENE 3.5 mph /  5.6 km/h 3.5 mph /  5.6 km/h 68 % 0 in /  0.0 mm
12:02 67.8 °F /  19.9 °C 56.5 °F /  13.6 °C 30 in /  1015.8 hPa ENE 2.3 mph /  3.7 km/h 2.3 mph /  3.7 km/h 67 % 0 in /  0.0 mm
12:07 68.2 °F /  20.1 °C 56.5 °F /  13.6 °C 30 in /  1015.8 hPa NNW 2.3 mph /  3.7 km/h 2.3 mph /  3.7 km/h 66 % 0 in /  0.0 mm
12:12 68.5 °F /  20.3 °C 55.9 °F /  13.3 °C 30 in /  1015.8 hPa NNE 2.3 mph /  3.7 km/h 2.3 mph /  3.7 km/h 64 % 0 in /  0.0 mm
12:17 69.1 °F /  20.6 °C 56.5 °F /  13.6 °C 30 in /  1015.8 hPa SW 4 mph /  6.4 km/h 4 mph /  6.4 km/h 64 % 0 in /  0.0 mm
12:22 69.6 °F /  20.9 °C 55.9 °F /  13.3 °C 30 in /  1014.8 hPa WSW 3.1 mph /  5.0 km/h 3.1 mph /  5.0 km/h 62 % 0 in /  0.0 mm
12:27 69.6 °F /  20.9 °C 55.9 °F /  13.3 °C 30 in /  1014.8 hPa NW 3.5 mph /  5.6 km/h 3.5 mph /  5.6 km/h 62 % 0 in /  0.0 mm
12:32 69.8 °F /  21.0 °C 55.2 °F /  12.9 °C 30 in /  1014.8 hPa WSW 2.4 mph /  3.9 km/h   60 % 0 in /  0.0 mm
12:37 70.2 °F /  21.2 °C 55.2 °F /  12.9 °C 30 in /  1015.8 hPa West 2.3 mph /  3.7 km/h 2.3 mph /  3.7 km/h 59 % 0 in /  0.0 mm
12:42 70.3 °F /  21.3 °C 54.9 °F /  12.7 °C 30 in /  1015.8 hPa ESE 3.5 mph /  5.6 km/h 3.5 mph /  5.6 km/h 58 % 0 in /  0.0 mm
12:46 70.2 °F /  21.2 °C 54.7 °F /  12.6 °C 30 in /  1015.8 hPa ENE 2.3 mph /  3.7 km/h 2.3 mph /  3.7 km/h 58 % 0 in /  0.0 mm
12:51 69.6 °F /  20.9 °C 53.8 °F /  12.1 °C 30 in /  1015.8 hPa NE 4.6 mph /  7.4 km/h 4.6 mph /  7.4 km/h 57 % 0 in /  0.0 mm
12:56 69.6 °F /  20.9 °C 53.2 °F /  11.8 °C 30 in /  1015.8 hPa ENE 4.6 mph /  7.4 km/h 4.6 mph /  7.4 km/h 56 % 0 in /  0.0 mm
13:01 70 °F /  21.1 °C 54 °F /  12.2 °C 30 in /  1015.8 hPa SSE 2.6 mph /  4.2 km/h 2.6 mph /  4.2 km/h 57 % 0 in /  0.0 mm
13:06 70.2 °F /  21.2 °C 54.1 °F /  12.3 °C 30 in /  1015.8 hPa East 2.3 mph /  3.7 km/h 2.3 mph /  3.7 km/h 57 % 0 in /  0.0 mm
13:11 69.8 °F /  21.0 °C 53.4 °F /  11.9 °C 30 in /  1015.8 hPa East 4.9 mph /  7.9 km/h 4.9 mph /  7.9 km/h 56 % 0 in /  0.0 mm
13:16 69.6 °F /  20.9 °C 53.8 °F /  12.1 °C 30 in /  1015.8 hPa ESE 3.5 mph /  5.6 km/h 3.5 mph /  5.6 km/h 57 % 0 in /  0.0 mm
13:21 69.4 °F /  20.8 °C 53.1 °F /  11.7 °C 30 in /  1015.8 hPa ENE 3.5 mph /  5.6 km/h 3.5 mph /  5.6 km/h 56 % 0 in /  0.0 mm
13:26 69.4 °F /  20.8 °C 52.5 °F /  11.4 °C 30 in /  1015.8 hPa East 4.6 mph /  7.4 km/h 4.6 mph /  7.4 km/h 55 % 0 in /  0.0 mm
13:31 69.6 °F /  20.9 °C 51.6 °F /  10.9 °C 30 in /  1015.8 hPa ESE 5.8 mph /  9.3 km/h 5.8 mph /  9.3 km/h 53 % 0 in /  0.0 mm
13:36 69.6 °F /  20.9 °C 52.2 °F /  11.2 °C 30 in /  1015.8 hPa NE 4.6 mph /  7.4 km/h 4.6 mph /  7.4 km/h 54 % 0 in /  0.0 mm
13:41 69.6 °F /  20.9 °C 51.6 °F /  10.9 °C 30 in /  1015.8 hPa East 6.9 mph /  11.1 km/h 6.9 mph /  11.1 km/h 53 % 0 in /  0.0 mm
13:46 70 °F /  21.1 °C 52.2 °F /  11.2 °C 30 in /  1015.8 hPa SE 4.6 mph /  7.4 km/h 4.6 mph /  7.4 km/h 53 % 0 in /  0.0 mm
13:51 70.2 °F /  21.2 °C 51.6 °F /  10.9 °C 30 in /  1015.8 hPa East 5.8 mph /  9.3 km/h 5.8 mph /  9.3 km/h 52 % 0 in /  0.0 mm
13:56 70.5 °F /  21.4 °C 52 °F /  11.1 °C 30 in /  1015.8 hPa SSE 4.6 mph /  7.4 km/h 4.6 mph /  7.4 km/h 52 % 0 in /  0.0 mm
14:01 71.2 °F /  21.8 °C 52.7 °F /  11.5 °C 30 in /  1015.8 hPa ESE 4 mph /  6.4 km/h 4 mph /  6.4 km/h 52 % 0 in /  0.0 mm
14:06 70.9 °F /  21.6 °C 51.8 °F /  11.0 °C 30 in /  1016.8 hPa SSE 6.9 mph /  11.1 km/h 6.9 mph /  11.1 km/h 51 % 0 in /  0.0 mm
14:11 70.7 °F /  21.5 °C 51.1 °F /  10.6 °C 30 in /  1016.8 hPa East 5.8 mph /  9.3 km/h 5.8 mph /  9.3 km/h 50 % 0 in /  0.0 mm
14:16 70.7 °F /  21.5 °C 51.1 °F /  10.6 °C 30 in /  1016.8 hPa East 9.2 mph /  14.8 km/h 9.2 mph /  14.8 km/h 50 % 0 in /  0.0 mm
14:21 70.5 °F /  21.4 °C 50.4 °F /  10.2 °C 30 in /  1016.8 hPa ESE 8.1 mph /  13.0 km/h 8.1 mph /  13.0 km/h 49 % 0 in /  0.0 mm
14:26 70.3 °F /  21.3 °C 50.7 °F /  10.4 °C 30 in /  1016.8 hPa East 5.8 mph /  9.3 km/h 5.8 mph /  9.3 km/h 50 % 0 in /  0.0 mm
14:31 70.5 °F /  21.4 °C 51.1 °F /  10.6 °C 30 in /  1016.8 hPa East 5.8 mph /  9.3 km/h 5.8 mph /  9.3 km/h 50 % 0 in /  0.0 mm
14:36 70.7 °F /  21.5 °C 51.1 °F /  10.6 °C 30 in /  1016.8 hPa East 5.8 mph /  9.3 km/h 5.8 mph /  9.3 km/h 50 % 0 in /  0.0 mm
14:41 70.9 °F /  21.6 °C 51.8 °F /  11.0 °C 30 in /  1016.8 hPa ESE 3.8 mph /  6.1 km/h 3.8 mph /  6.1 km/h 51 % 0 in /  0.0 mm
14:46 71.1 °F /  21.7 °C 51.4 °F /  10.8 °C 30 in /  1016.8 hPa SE 5.8 mph /  9.3 km/h 5.8 mph /  9.3 km/h 50 % 0 in /  0.0 mm
14:51 71.4 °F /  21.9 °C 52.3 °F /  11.3 °C 30 in /  1016.8 hPa SSE 3.5 mph /  5.6 km/h 3.5 mph /  5.6 km/h 51 % 0 in /  0.0 mm
14:56 71.6 °F /  22.0 °C 52 °F /  11.1 °C 30 in /  1016.8 hPa SE 5.8 mph /  9.3 km/h 5.8 mph /  9.3 km/h 50 % 0 in /  0.0 mm
15:01 71.6 °F /  22.0 °C 52 °F /  11.1 °C 30 in /  1016.8 hPa SE 5.8 mph /  9.3 km/h 5.8 mph /  9.3 km/h 50 % 0 in /  0.0 mm
15:06 71.2 °F /  21.8 °C 51.6 °F /  10.9 °C 30 in /  1016.8 hPa SW 5.8 mph /  9.3 km/h 5.8 mph /  9.3 km/h 50 % 0 in /  0.0 mm
15:11 70.7 °F /  21.5 °C 50.5 °F /  10.3 °C 30 in /  1016.8 hPa East 4.6 mph /  7.4 km/h 4.6 mph /  7.4 km/h 49 % 0 in /  0.0 mm
15:16 70.7 °F /  21.5 °C 50.5 °F /  10.3 °C 30 in /  1016.8 hPa SE 4.6 mph /  7.4 km/h 4.6 mph /  7.4 km/h 49 % 0 in /  0.0 mm
15:21 71.2 °F /  21.8 °C 51.6 °F /  10.9 °C 30 in /  1016.8 hPa ESE 2.4 mph /  3.9 km/h 2.4 mph /  3.9 km/h 50 % 0 in /  0.0 mm
15:26 71.1 °F /  21.7 °C 50.9 °F /  10.5 °C 30 in /  1016.8 hPa ESE 5.4 mph /  8.7 km/h 5.4 mph /  8.7 km/h 49 % 0 in /  0.0 mm
15:31 70.9 °F /  21.6 °C 50.7 °F /  10.4 °C 30 in /  1016.8 hPa East 3.5 mph /  5.6 km/h 3.5 mph /  5.6 km/h 49 % 0 in /  0.0 mm
15:36 71.2 °F /  21.8 °C 51.1 °F /  10.6 °C 30 in /  1016.8 hPa SSE 2.4 mph /  3.9 km/h 2.4 mph /  3.9 km/h 49 % 0 in /  0.0 mm
15:41 72 °F /  22.2 °C 52.3 °F /  11.3 °C 30 in /  1016.8 hPa SW 3.5 mph /  5.6 km/h 3.5 mph /  5.6 km/h 50 % 0 in /  0.0 mm
15:46 72.1 °F /  22.3 °C 52.5 °F /  11.4 °C 30 in /  1016.8 hPa East 2.4 mph /  3.9 km/h   50 % 0 in /  0.0 mm
15:52 71.8 °F /  22.1 °C 51.6 °F /  10.9 °C 30 in /  1016.8 hPa NE 4.6 mph /  7.4 km/h 4.6 mph /  7.4 km/h 49 % 0 in /  0.0 mm
15:57 71.8 °F /  22.1 °C 51.6 °F /  10.9 °C 30 in /  1016.8 hPa NE 3.5 mph /  5.6 km/h 3.5 mph /  5.6 km/h 49 % 0 in /  0.0 mm
16:02 71.8 °F /  22.1 °C 51.6 °F /  10.9 °C 30 in /  1016.8 hPa NE 3.1 mph /  5.0 km/h 3.1 mph /  5.0 km/h 49 % 0 in /  0.0 mm
16:07 71.6 °F /  22.0 °C 51.4 °F /  10.8 °C 30 in /  1015.8 hPa ENE 3.5 mph /  5.6 km/h 3.5 mph /  5.6 km/h 49 % 0 in /  0.0 mm
16:12 71.6 °F /  22.0 °C 51.4 °F /  10.8 °C 30 in /  1015.8 hPa ESE 6.9 mph /  11.1 km/h 6.9 mph /  11.1 km/h 49 % 0 in /  0.0 mm
16:17 71.6 °F /  22.0 °C 51.4 °F /  10.8 °C 30 in /  1015.8 hPa ESE 5.8 mph /  9.3 km/h 5.8 mph /  9.3 km/h 49 % 0 in /  0.0 mm
16:22 72.3 °F /  22.4 °C 52.2 °F /  11.2 °C 30 in /  1016.8 hPa SE 2.3 mph /  3.7 km/h 2.3 mph /  3.7 km/h 49 % 0 in /  0.0 mm
16:27 72.9 °F /  22.7 °C 52.5 °F /  11.4 °C 30 in /  1016.8 hPa SSE 2 mph /  3.2 km/h 2 mph /  3.2 km/h 49 % 0 in /  0.0 mm
16:32 72.7 °F /  22.6 °C 52.3 °F /  11.3 °C 30 in /  1016.8 hPa ESE 2.3 mph /  3.7 km/h 2.3 mph /  3.7 km/h 49 % 0 in /  0.0 mm
16:37 72.3 °F /  22.4 °C 52.2 °F /  11.2 °C 30 in /  1016.8 hPa NNE 7.6 mph /  12.2 km/h 7.6 mph /  12.2 km/h 49 % 0 in /  0.0 mm
16:42 72.1 °F /  22.3 °C 52 °F /  11.1 °C 30 in /  1016.8 hPa ENE 4.6 mph /  7.4 km/h 4.6 mph /  7.4 km/h 49 % 0 in /  0.0 mm
16:47 72.1 °F /  22.3 °C 52 °F /  11.1 °C 30 in /  1016.8 hPa NNE 5.8 mph /  9.3 km/h 5.8 mph /  9.3 km/h 49 % 0 in /  0.0 mm
16:52 72 °F /  22.2 °C 51.8 °F /  11.0 °C 30 in /  1016.8 hPa NE 5.8 mph /  9.3 km/h 5.8 mph /  9.3 km/h 49 % 0 in /  0.0 mm
16:57 72 °F /  22.2 °C 51.3 °F /  10.7 °C 30 in /  1016.8 hPa NNE 5.8 mph /  9.3 km/h 5.8 mph /  9.3 km/h 48 % 0 in /  0.0 mm
17:02 72 °F /  22.2 °C 51.3 °F /  10.7 °C 30 in /  1016.8 hPa NE 5.9 mph /  9.5 km/h 5.9 mph /  9.5 km/h 48 % 0 in /  0.0 mm
17:07 72.1 °F /  22.3 °C 50.7 °F /  10.4 °C 30 in /  1015.8 hPa East 4.6 mph /  7.4 km/h 4.6 mph /  7.4 km/h 47 % 0 in /  0.0 mm
17:12 72 °F /  22.2 °C 50.5 °F /  10.3 °C 30 in /  1015.8 hPa East 5.8 mph /  9.3 km/h 5.8 mph /  9.3 km/h 47 % 0 in /  0.0 mm
17:17 72.1 °F /  22.3 °C 50.7 °F /  10.4 °C 30 in /  1015.8 hPa NE 4.9 mph /  7.9 km/h 4.9 mph /  7.9 km/h 47 % 0 in /  0.0 mm
17:22 72.1 °F /  22.3 °C 50.7 °F /  10.4 °C 30 in /  1016.8 hPa NE 5.8 mph /  9.3 km/h 5.8 mph /  9.3 km/h 47 % 0 in /  0.0 mm
17:27 71.8 °F /  22.1 °C 50.5 °F /  10.3 °C 30 in /  1016.8 hPa ESE 4.6 mph /  7.4 km/h 4.6 mph /  7.4 km/h 47 % 0 in /  0.0 mm
17:32 71.8 °F /  22.1 °C 49.8 °F /  9.9 °C 30 in /  1016.8 hPa ESE 8.1 mph /  13.0 km/h 8.1 mph /  13.0 km/h 46 % 0 in /  0.0 mm
17:37 71.8 °F /  22.1 °C 49.8 °F /  9.9 °C 30 in /  1016.8 hPa SSE 5.8 mph /  9.3 km/h 5.8 mph /  9.3 km/h 46 % 0 in /  0.0 mm
17:42 72 °F /  22.2 °C 50 °F /  10.0 °C 30 in /  1016.8 hPa NE 8.1 mph /  13.0 km/h 8.1 mph /  13.0 km/h 46 % 0 in /  0.0 mm
17:47 72 °F /  22.2 °C 50.5 °F /  10.3 °C 30 in /  1016.8 hPa East 3.5 mph /  5.6 km/h 3.5 mph /  5.6 km/h 47 % 0 in /  0.0 mm
17:52 72.1 °F /  22.3 °C 50.2 °F /  10.1 °C 30 in /  1016.8 hPa East 4.6 mph /  7.4 km/h 4.6 mph /  7.4 km/h 46 % 0 in /  0.0 mm
17:57 72.3 °F /  22.4 °C 51.1 °F /  10.6 °C 30 in /  1016.8 hPa ESE 2.3 mph /  3.7 km/h 2.3 mph /  3.7 km/h 47 % 0 in /  0.0 mm
18:02 72.3 °F /  22.4 °C 50.4 °F /  10.2 °C 30 in /  1016.8 hPa ENE 2.4 mph /  3.9 km/h 2.4 mph /  3.9 km/h 46 % 0 in /  0.0 mm
18:07 72.5 °F /  22.5 °C 50.5 °F /  10.3 °C 30 in /  1016.8 hPa NNE 3.5 mph /  5.6 km/h 3.5 mph /  5.6 km/h 46 % 0 in /  0.0 mm
18:12 72.5 °F /  22.5 °C 50.5 °F /  10.3 °C 30 in /  1016.8 hPa ENE 3.5 mph /  5.6 km/h 3.5 mph /  5.6 km/h 46 % 0 in /  0.0 mm
18:17 72.7 °F /  22.6 °C 50.7 °F /  10.4 °C 30 in /  1016.8 hPa NE 5.8 mph /  9.3 km/h 5.8 mph /  9.3 km/h 46 % 0 in /  0.0 mm
18:22 72.7 °F /  22.6 °C 50.7 °F /  10.4 °C 30 in /  1015.8 hPa ESE 6.9 mph /  11.1 km/h 6.9 mph /  11.1 km/h 46 % 0 in /  0.0 mm
18:27 72.5 °F /  22.5 °C 50.5 °F /  10.3 °C 30 in /  1015.8 hPa NNE 5.8 mph /  9.3 km/h 5.8 mph /  9.3 km/h 46 % 0 in /  0.0 mm
18:32 72.5 °F /  22.5 °C 50.5 °F /  10.3 °C 30 in /  1015.8 hPa ENE 4.6 mph /  7.4 km/h 4.6 mph /  7.4 km/h 46 % 0 in /  0.0 mm
18:37 72.3 °F /  22.4 °C 50.4 °F /  10.2 °C 30 in /  1015.8 hPa ESE 4.6 mph /  7.4 km/h 4.6 mph /  7.4 km/h 46 % 0 in /  0.0 mm
18:42 72.1 °F /  22.3 °C 49.6 °F /  9.8 °C 30 in /  1015.8 hPa East 5.8 mph /  9.3 km/h 5.8 mph /  9.3 km/h 45 % 0 in /  0.0 mm
18:47 72.1 °F /  22.3 °C 49.6 °F /  9.8 °C 30 in /  1015.8 hPa ESE 4.6 mph /  7.4 km/h 4.6 mph /  7.4 km/h 45 % 0 in /  0.0 mm
18:52 72.1 °F /  22.3 °C 50.2 °F /  10.1 °C 30 in /  1015.8 hPa ENE 5.9 mph /  9.5 km/h 5.9 mph /  9.5 km/h 46 % 0 in /  0.0 mm
18:57 72.3 °F /  22.4 °C 49.8 °F /  9.9 °C 30 in /  1015.8 hPa ENE 4.6 mph /  7.4 km/h 4.6 mph /  7.4 km/h 45 % 0 in /  0.0 mm
19:02 72.3 °F /  22.4 °C 49.8 °F /  9.9 °C 30 in /  1015.8 hPa ENE 4.6 mph /  7.4 km/h 4.6 mph /  7.4 km/h 45 % 0 in /  0.0 mm
19:07 72.3 °F /  22.4 °C 49.8 °F /  9.9 °C 30 in /  1015.8 hPa East 5.8 mph /  9.3 km/h 5.8 mph /  9.3 km/h 45 % 0 in /  0.0 mm
19:12 72.3 °F /  22.4 °C 49.3 °F /  9.6 °C 30 in /  1015.8 hPa NNE 5.8 mph /  9.3 km/h 5.8 mph /  9.3 km/h 44 % 0 in /  0.0 mm
19:15 63.7 °F /  17.6 °C 48.2 °F /  9.0 °C 30.1 in /  1017.8 hPa Calm   2 mph /  3.2 km/h 57 % 0 in /  0.0 mm
19:17 72.5 °F /  22.5 °C 49.3 °F /  9.6 °C 30 in /  1015.8 hPa ENE 6.4 mph /  10.3 km/h 6.4 mph /  10.3 km/h 44 % 0 in /  0.0 mm
19:22 72.5 °F /  22.5 °C 49.3 °F /  9.6 °C 30 in /  1015.8 hPa ESE 4.6 mph /  7.4 km/h 4.6 mph /  7.4 km/h 44 % 0 in /  0.0 mm
19:25 63.7 °F /  17.6 °C 48.6 °F /  9.2 °C 30 in /  1016.8 hPa Calm     58 % 0 in /  0.0 mm
19:27 72.3 °F /  22.4 °C 49.3 °F /  9.6 °C 30 in /  1015.8 hPa ENE 5.8 mph /  9.3 km/h 5.8 mph /  9.3 km/h 44 % 0 in /  0.0 mm
19:32 72.3 °F /  22.4 °C 49.3 °F /  9.6 °C 30 in /  1015.8 hPa ESE 4.9 mph /  7.9 km/h 4.9 mph /  7.9 km/h 44 % 0 in /  0.0 mm
19:35 63.3 °F /  17.4 °C 48.4 °F /  9.1 °C 30 in /  1016.8 hPa Calm     58 % 0 in /  0.0 mm
19:37 72.1 °F /  22.3 °C 48.9 °F /  9.4 °C 30 in /  1014.8 hPa East 6.9 mph /  11.1 km/h 6.9 mph /  11.1 km/h 44 % 0 in /  0.0 mm
19:42 72.1 °F /  22.3 °C 48.9 °F /  9.4 °C 30 in /  1014.8 hPa ENE 8.1 mph /  13.0 km/h 8.1 mph /  13.0 km/h 44 % 0 in /  0.0 mm
19:45 62.6 °F /  17.0 °C 48 °F /  8.9 °C 30.1 in /  1017.8 hPa WSW 2 mph /  3.2 km/h 2 mph /  3.2 km/h 59 % 0 in /  0.0 mm
19:47 72.1 °F /  22.3 °C 48.4 °F /  9.1 °C 30 in /  1014.8 hPa East 9.2 mph /  14.8 km/h 9.2 mph /  14.8 km/h 43 % 0 in /  0.0 mm
19:52 72 °F /  22.2 °C 48.2 °F /  9.0 °C 30 in /  1015.8 hPa SE 4.6 mph /  7.4 km/h 4.6 mph /  7.4 km/h 43 % 0 in /  0.0 mm
19:55 62.4 °F /  16.9 °C 48.7 °F /  9.3 °C 30.1 in /  1017.8 hPa Calm   3 mph /  4.8 km/h 61 % 0 in /  0.0 mm
19:57 71.8 °F /  22.1 °C 48 °F /  8.9 °C 30 in /  1015.8 hPa ESE 6.9 mph /  11.1 km/h 6.9 mph /  11.1 km/h 43 % 0 in /  0.0 mm
20:02 71.8 °F /  22.1 °C 48 °F /  8.9 °C 30 in /  1015.8 hPa ESE 8.1 mph /  13.0 km/h 8.1 mph /  13.0 km/h 43 % 0 in /  0.0 mm
20:05 62.4 °F /  16.9 °C 48.7 °F /  9.3 °C 30.1 in /  1017.8 hPa Calm   1 mph /  1.6 km/h 61 % 0 in /  0.0 mm
20:07 71.6 °F /  22.0 °C 47.8 °F /  8.8 °C 30 in /  1015.8 hPa ENE 6.9 mph /  11.1 km/h 6.9 mph /  11.1 km/h 43 % 0 in /  0.0 mm
20:12 71.6 °F /  22.0 °C 47.8 °F /  8.8 °C 30 in /  1015.8 hPa ESE 5.8 mph /  9.3 km/h 5.8 mph /  9.3 km/h 43 % 0 in /  0.0 mm
20:15 62.4 °F /  16.9 °C 49.3 °F /  9.6 °C 30.1 in /  1017.8 hPa Calm     62 % 0 in /  0.0 mm
20:17 71.4 °F /  21.9 °C 47.7 °F /  8.7 °C 30 in /  1015.8 hPa ESE 5.8 mph /  9.3 km/h 5.8 mph /  9.3 km/h 43 % 0 in /  0.0 mm
20:22 71.1 °F /  21.7 °C 48 °F /  8.9 °C 30 in /  1015.8 hPa ESE 4.6 mph /  7.4 km/h 4.6 mph /  7.4 km/h 44 % 0 in /  0.0 mm
20:24 71.1 °F /  21.7 °C 47.5 °F /  8.6 °C 30 in /  1015.8 hPa East 5.8 mph /  9.3 km/h 5.8 mph /  9.3 km/h 43 % 0 in /  0.0 mm
20:25 62.2 °F /  16.8 °C 49.1 °F /  9.5 °C 30.1 in /  1017.8 hPa Calm     62 % 0 in /  0.0 mm
20:29 70.7 °F /  21.5 °C 47.7 °F /  8.7 °C 30 in /  1015.8 hPa ESE 4.6 mph /  7.4 km/h 4.6 mph /  7.4 km/h 44 % 0 in /  0.0 mm
20:34 70.5 °F /  21.4 °C 47.5 °F /  8.6 °C 30 in /  1015.8 hPa ENE 2.3 mph /  3.7 km/h 2.3 mph /  3.7 km/h 44 % 0 in /  0.0 mm
20:35 61.9 °F /  16.6 °C 49.1 °F /  9.5 °C 30.1 in /  1017.8 hPa Calm   1 mph /  1.6 km/h 63 % 0 in /  0.0 mm
20:39 70.3 °F /  21.3 °C 47.5 °F /  8.6 °C 30 in /  1015.8 hPa East 5.8 mph /  9.3 km/h 5.8 mph /  9.3 km/h 44 % 0 in /  0.0 mm
20:44 70.2 °F /  21.2 °C 47.8 °F /  8.8 °C 30 in /  1015.8 hPa East 5.8 mph /  9.3 km/h 5.8 mph /  9.3 km/h 45 % 0 in /  0.0 mm
20:45 61.9 °F /  16.6 °C 49.1 °F /  9.5 °C 30 in /  1016.8 hPa Calm   1 mph /  1.6 km/h 63 % 0 in /  0.0 mm
20:49 70 °F /  21.1 °C 47.7 °F /  8.7 °C 30 in /  1015.8 hPa SE 5.8 mph /  9.3 km/h 5.8 mph /  9.3 km/h 45 % 0 in /  0.0 mm
20:54 69.8 °F /  21.0 °C 47.5 °F /  8.6 °C 30 in /  1015.8 hPa ESE 3.1 mph /  5.0 km/h 3.1 mph /  5.0 km/h 45 % 0 in /  0.0 mm
20:55 62.1 °F /  16.7 °C 49.3 °F /  9.6 °C 30.1 in /  1017.8 hPa Calm   2 mph /  3.2 km/h 63 % 0 in /  0.0 mm
20:59 69.6 °F /  20.9 °C 47.8 °F /  8.8 °C 30 in /  1015.8 hPa SSE 3.5 mph /  5.6 km/h 3.5 mph /  5.6 km/h 46 % 0 in /  0.0 mm
21:04 69.3 °F /  20.7 °C 47.7 °F /  8.7 °C 30 in /  1015.8 hPa SE 4 mph /  6.4 km/h 4 mph /  6.4 km/h 46 % 0 in /  0.0 mm
21:05 61.9 °F /  16.6 °C 49.1 °F /  9.5 °C 30.1 in /  1017.8 hPa NNW 1 mph /  1.6 km/h 2 mph /  3.2 km/h 63 % 0 in /  0.0 mm
21:09 69.1 °F /  20.6 °C 47.5 °F /  8.6 °C 30 in /  1015.8 hPa ESE 3.5 mph /  5.6 km/h 3.5 mph /  5.6 km/h 46 % 0 in /  0.0 mm
21:14 68.9 °F /  20.5 °C 47.3 °F /  8.5 °C 30 in /  1015.8 hPa SSE 4.6 mph /  7.4 km/h 4.6 mph /  7.4 km/h 46 % 0 in /  0.0 mm
21:15 62.8 °F /  17.1 °C 49.1 °F /  9.5 °C 30.1 in /  1017.8 hPa NNW 2 mph /  3.2 km/h 3 mph /  4.8 km/h 61 % 0 in /  0.0 mm
21:19 68.7 °F /  20.4 °C 47.1 °F /  8.4 °C 30 in /  1015.8 hPa ESE 3.5 mph /  5.6 km/h 3.5 mph /  5.6 km/h 46 % 0 in /  0.0 mm
21:24 68.5 °F /  20.3 °C 46.9 °F /  8.3 °C 30 in /  1015.8 hPa Calm     46 % 0 in /  0.0 mm
21:25 62.8 °F /  17.1 °C 49.1 °F /  9.5 °C 30.1 in /  1017.8 hPa NNE 2 mph /  3.2 km/h 3 mph /  4.8 km/h 61 % 0 in /  0.0 mm
21:29 68.4 °F /  20.2 °C 47.3 °F /  8.5 °C 30 in /  1015.8 hPa ENE 1.2 mph /  1.9 km/h 1.4 mph /  2.3 km/h 47 % 0 in /  0.0 mm
21:34 68.2 °F /  20.1 °C 47.1 °F /  8.4 °C 30 in /  1015.8 hPa ENE 2.3 mph /  3.7 km/h 2.3 mph /  3.7 km/h 47 % 0 in /  0.0 mm
21:35 62.8 °F /  17.1 °C 49.1 °F /  9.5 °C 30.1 in /  1017.8 hPa NE 2 mph /  3.2 km/h 3 mph /  4.8 km/h 61 % 0 in /  0.0 mm
21:39 68 °F /  20.0 °C 46.9 °F /  8.3 °C 30 in /  1015.8 hPa NNE 1.2 mph /  1.9 km/h 1.2 mph /  1.9 km/h 47 % 0 in /  0.0 mm
21:44 67.8 °F /  19.9 °C 47.5 °F /  8.6 °C 30 in /  1015.8 hPa NNE 2.3 mph /  3.7 km/h 2.3 mph /  3.7 km/h 48 % 0 in /  0.0 mm
21:45 63 °F /  17.2 °C 49.6 °F /  9.8 °C 30.1 in /  1017.8 hPa NNE 3 mph /  4.8 km/h 6 mph /  9.7 km/h 62 % 0 in /  0.0 mm
21:49 67.5 °F /  19.7 °C 47.1 °F /  8.4 °C 30 in /  1015.8 hPa NNE 1.4 mph /  2.3 km/h 1.4 mph /  2.3 km/h 48 % 0 in /  0.0 mm
21:54 67.3 °F /  19.6 °C 46.9 °F /  8.3 °C 30 in /  1015.8 hPa NNE 2.3 mph /  3.7 km/h 2.3 mph /  3.7 km/h 48 % 0 in /  0.0 mm
21:55 62.8 °F /  17.1 °C 50 °F /  10.0 °C 30.1 in /  1017.8 hPa NNE 5 mph /  8.0 km/h 5 mph /  8.0 km/h 63 % 0 in /  0.0 mm
21:59 67.1 °F /  19.5 °C 46.8 °F /  8.2 °C 30 in /  1015.8 hPa Calm     48 % 0 in /  0.0 mm
22:04 66.9 °F /  19.4 °C 46.6 °F /  8.1 °C 30 in /  1015.8 hPa NNE 0.9 mph /  1.4 km/h   48 % 0 in /  0.0 mm
22:05 62.6 °F /  17.0 °C 49.8 °F /  9.9 °C 30.1 in /  1017.8 hPa NE 5 mph /  8.0 km/h 6 mph /  9.7 km/h 63 % 0 in /  0.0 mm
22:09 66.6 °F /  19.2 °C 46.8 °F /  8.2 °C 30 in /  1016.8 hPa Calm     49 % 0 in /  0.0 mm
22:14 66.2 °F /  19.0 °C 46.6 °F /  8.1 °C 30 in /  1016.8 hPa North 1.2 mph /  1.9 km/h   49 % 0 in /  0.0 mm
22:15 62.6 °F /  17.0 °C 49.8 °F /  9.9 °C 30.1 in /  1017.8 hPa NE 5 mph /  8.0 km/h 5 mph /  8.0 km/h 63 % 0 in /  0.0 mm
22:19 66 °F /  18.9 °C 46.8 °F /  8.2 °C 30 in /  1016.8 hPa Calm     50 % 0 in /  0.0 mm
22:24 65.8 °F /  18.8 °C 46.8 °F /  8.2 °C 30.1 in /  1017.8 hPa Calm     50 % 0 in /  0.0 mm
22:25 62.4 °F /  16.9 °C 50.2 °F /  10.1 °C 30.1 in /  1017.8 hPa NE 3 mph /  4.8 km/h 5 mph /  8.0 km/h 64 % 0 in /  0.0 mm
22:29 65.7 °F /  18.7 °C 46.6 °F /  8.1 °C 30.1 in /  1017.8 hPa NNE 2.3 mph /  3.7 km/h 2.3 mph /  3.7 km/h 50 % 0 in /  0.0 mm
22:34 65.8 °F /  18.8 °C 47.1 °F /  8.4 °C 30.1 in /  1017.8 hPa NNE 3.5 mph /  5.6 km/h 3.5 mph /  5.6 km/h 51 % 0 in /  0.0 mm
22:35 62.2 °F /  16.8 °C 49.8 °F /  9.9 °C 30.1 in /  1017.8 hPa NNE 2 mph /  3.2 km/h 6 mph /  9.7 km/h 64 % 0 in /  0.0 mm
22:39 66 °F /  18.9 °C 47.5 °F /  8.6 °C 30.1 in /  1017.8 hPa NNE 2.3 mph /  3.7 km/h 2.3 mph /  3.7 km/h 51 % 0 in /  0.0 mm
22:44 66 °F /  18.9 °C 47.5 °F /  8.6 °C 30.1 in /  1017.8 hPa NE 2.3 mph /  3.7 km/h 2.3 mph /  3.7 km/h 51 % 0 in /  0.0 mm
22:45 62.1 °F /  16.7 °C 49.6 °F /  9.8 °C 30.1 in /  1017.8 hPa NNE 2 mph /  3.2 km/h 5 mph /  8.0 km/h 64 % 0 in /  0.0 mm
22:49 66 °F /  18.9 °C 47.5 °F /  8.6 °C 30.1 in /  1017.8 hPa NE 2.4 mph /  3.9 km/h 2.4 mph /  3.9 km/h 51 % 0 in /  0.0 mm
22:54 65.8 °F /  18.8 °C 47.1 °F /  8.4 °C 30.1 in /  1017.8 hPa NNE 3.5 mph /  5.6 km/h 3.5 mph /  5.6 km/h 51 % 0 in /  0.0 mm
22:55 61.9 °F /  16.6 °C 49.6 °F /  9.8 °C 30.1 in /  1018.8 hPa NNE 2 mph /  3.2 km/h 3 mph /  4.8 km/h 64 % 0 in /  0.0 mm
22:59 65.8 °F /  18.8 °C 47.1 °F /  8.4 °C 30.1 in /  1017.8 hPa NNE 2.3 mph /  3.7 km/h 2.3 mph /  3.7 km/h 51 % 0 in /  0.0 mm
23:04 65.7 °F /  18.7 °C 47.5 °F /  8.6 °C 30.1 in /  1017.8 hPa NE 1.4 mph /  2.3 km/h 1.4 mph /  2.3 km/h 52 % 0 in /  0.0 mm
23:05 61.9 °F /  16.6 °C 49.6 °F /  9.8 °C 30.1 in /  1018.8 hPa NE 2 mph /  3.2 km/h 4 mph /  6.4 km/h 64 % 0 in /  0.0 mm
23:09 65.5 °F /  18.6 °C 47.5 °F /  8.6 °C 30.1 in /  1018.8 hPa NNE 1.2 mph /  1.9 km/h 1.2 mph /  1.9 km/h 52 % 0 in /  0.0 mm
23:14 65.3 °F /  18.5 °C 47.1 °F /  8.4 °C 30.1 in /  1018.8 hPa NNW 0.9 mph /  1.4 km/h   52 % 0 in /  0.0 mm
23:15 61.9 °F /  16.6 °C 49.1 °F /  9.5 °C 30.1 in /  1017.8 hPa NNE 1 mph /  1.6 km/h 4 mph /  6.4 km/h 63 % 0 in /  0.0 mm
23:19 65.3 °F /  18.5 °C 47.7 °F /  8.7 °C 30.1 in /  1018.8 hPa NNE 1.2 mph /  1.9 km/h 1.2 mph /  1.9 km/h 53 % 0 in /  0.0 mm
23:24 65.3 °F /  18.5 °C 47.7 °F /  8.7 °C 30.1 in /  1017.8 hPa NE 1.2 mph /  1.9 km/h   53 % 0 in /  0.0 mm
23:25 61.2 °F /  16.2 °C 48.9 °F /  9.4 °C 30.1 in /  1017.8 hPa West 1 mph /  1.6 km/h 3 mph /  4.8 km/h 64 % 0 in /  0.0 mm
23:29 65.1 °F /  18.4 °C 48 °F /  8.9 °C 30.1 in /  1017.8 hPa Calm     54 % 0 in /  0.0 mm
23:34 65.1 °F /  18.4 °C 48 °F /  8.9 °C 30.1 in /  1017.8 hPa Calm     54 % 0 in /  0.0 mm
23:35 61 °F /  16.1 °C 48.7 °F /  9.3 °C 30.1 in /  1017.8 hPa WSW 1 mph /  1.6 km/h 2 mph /  3.2 km/h 64 % 0 in /  0.0 mm
23:39 64.9 °F /  18.3 °C 47.8 °F /  8.8 °C 30 in /  1016.8 hPa NNE 1.2 mph /  1.9 km/h   54 % 0 in /  0.0 mm
23:44 64.8 °F /  18.2 °C 48.2 °F /  9.0 °C 30 in /  1016.8 hPa NNE 1.2 mph /  1.9 km/h   55 % 0 in /  0.0 mm
23:45 61 °F /  16.1 °C 48.7 °F /  9.3 °C 30.1 in /  1017.8 hPa West 1 mph /  1.6 km/h 2 mph /  3.2 km/h 64 % 0 in /  0.0 mm
23:49 64.6 °F /  18.1 °C 48 °F /  8.9 °C 30 in /  1016.8 hPa Calm     55 % 0 in /  0.0 mm
23:54 64.4 °F /  18.0 °C 48.4 °F /  9.1 °C 30.1 in /  1017.8 hPa NW 1.2 mph /  1.9 km/h   56 % 0 in /  0.0 mm
23:55 60.4 °F /  15.8 °C 48.6 °F /  9.2 °C 30.1 in /  1017.8 hPa WSW 1 mph /  1.6 km/h 2 mph /  3.2 km/h 65 % 0 in /  0.0 mm
23:59 64.2 °F /  17.9 °C 48.2 °F /  9.0 °C 30.1 in /  1017.8 hPa Calm     56 % 0 in /  0.0 mm
Meteo Sesrovires
Elogis d' Weather Underground - 3.75 mb

Guio original per  Jim McMurry - jmcmurry@mwt.net Adaptat per a la plantilla per  Wim van der Kuil - Leuven-Template.eu

Trobareu la nostra informacio del temps tambe a:

Weather Underground

AWEKAS